aviador You're here:

LBPD Decoded Metar

PLOVDIV in BULGARIA
Report Time2018-01-19 11:00:00
UTC Time2018-01-19 11:29:40
Flight Rules vfr VFR
Wind260° at 07 kt
W.Decomp.*RWY 30: 5.1 kt HW 4.8 kt LCW
W.Rank260° ranks 13
Current wind is above 260° avg. (6.9)
Visibility9999 m
Phenomena:N/A
Clouds:N/A
Expected CloudBase > 7,200 ft AGL from Temp-Dew spread
CeilingNone
Temp11°C (ISA -3)
Dew Point-7°C (28% RH)
AAT5.7°C
QNH1012 hPa
Density Alt364 ft
Elevation607 ft
Report Wrong Elevation
Raw Report
METAR LBPD 191100Z AUTO 26007KT 210V290 9999 NCD 11/M07 Q1012 NOSIG=

Extra information for LBPD:More info

Metar Taf Metar & Taf Last 4 Metars F.Rules Stats Wind Profile Meteogram Temp Stats Airport Information Weather charts Add Link Nearby VenuesMetar ALERT Operation Metar Decoded Social comments